sensor_id;sensor_type;location;lat;lon;timestamp;P1;durP1;ratioP1;P2;durP2;ratioP2
44774;SDS011;31340;51.402;0.016;2022-08-03T00:02:17;16.73;;;4.85;;
44774;SDS011;31340;51.402;0.016;2022-08-03T00:04:44;21.23;;;5.93;;
44774;SDS011;31340;51.402;0.016;2022-08-03T00:07:12;16.17;;;5.22;;
44774;SDS011;31340;51.402;0.016;2022-08-03T00:09:40;21.55;;;5.38;;
44774;SDS011;31340;51.402;0.016;2022-08-03T00:12:08;28.42;;;6.35;;
44774;SDS011;31340;51.402;0.016;2022-08-03T00:14:36;15.18;;;4.53;;
44774;SDS011;31340;51.402;0.016;2022-08-03T00:17:03;16.77;;;5.50;;
44774;SDS011;31340;51.402;0.016;2022-08-03T00:19:31;22.02;;;5.85;;
44774;SDS011;31340;51.402;0.016;2022-08-03T00:22:01;18.08;;;5.47;;
44774;SDS011;31340;51.402;0.016;2022-08-03T00:24:28;19.00;;;5.25;;
44774;SDS011;31340;51.402;0.016;2022-08-03T00:26:57;19.83;;;5.28;;
44774;SDS011;31340;51.402;0.016;2022-08-03T00:29:25;19.63;;;5.60;;
44774;SDS011;31340;51.402;0.016;2022-08-03T00:31:53;19.75;;;5.65;;
44774;SDS011;31340;51.402;0.016;2022-08-03T00:34:26;17.65;;;4.90;;
44774;SDS011;31340;51.402;0.016;2022-08-03T00:37:14;15.90;;;4.80;;
44774;SDS011;31340;51.402;0.016;2022-08-03T00:39:42;17.92;;;5.57;;
44774;SDS011;31340;51.402;0.016;2022-08-03T00:42:12;19.73;;;4.70;;
44774;SDS011;31340;51.402;0.016;2022-08-03T00:44:41;26.40;;;6.20;;
44774;SDS011;31340;51.402;0.016;2022-08-03T00:47:10;25.25;;;5.85;;
44774;SDS011;31340;51.402;0.016;2022-08-03T00:49:38;17.95;;;5.60;;
44774;SDS011;31340;51.402;0.016;2022-08-03T00:52:08;23.27;;;5.72;;
44774;SDS011;31340;51.402;0.016;2022-08-03T00:54:36;21.92;;;6.50;;
44774;SDS011;31340;51.402;0.016;2022-08-03T00:57:04;25.45;;;6.30;;
44774;SDS011;31340;51.402;0.016;2022-08-03T00:59:33;15.50;;;4.88;;
44774;SDS011;31340;51.402;0.016;2022-08-03T01:02:00;23.95;;;5.35;;
44774;SDS011;31340;51.402;0.016;2022-08-03T01:04:28;19.60;;;5.05;;
44774;SDS011;31340;51.402;0.016;2022-08-03T01:07:05;17.42;;;5.50;;
44774;SDS011;31340;51.402;0.016;2022-08-03T01:15:24;21.90;;;8.35;;
44774;SDS011;31340;51.402;0.016;2022-08-03T01:18:27;19.40;;;7.40;;
44774;SDS011;31340;51.402;0.016;2022-08-03T01:21:28;23.08;;;8.07;;
44774;SDS011;31340;51.402;0.016;2022-08-03T01:27:06;27.23;;;8.82;;
44774;SDS011;31340;51.402;0.016;2022-08-03T01:29:49;20.92;;;8.85;;
44774;SDS011;31340;51.402;0.016;2022-08-03T01:32:25;22.13;;;9.68;;
44774;SDS011;31340;51.402;0.016;2022-08-03T01:35:24;24.08;;;9.52;;
44774;SDS011;31340;51.402;0.016;2022-08-03T01:37:56;26.77;;;10.23;;
44774;SDS011;31340;51.402;0.016;2022-08-03T01:40:26;26.48;;;10.40;;
44774;SDS011;31340;51.402;0.016;2022-08-03T01:42:56;27.08;;;10.43;;
44774;SDS011;31340;51.402;0.016;2022-08-03T01:45:28;28.85;;;10.88;;
44774;SDS011;31340;51.402;0.016;2022-08-03T01:48:00;32.08;;;11.52;;
44774;SDS011;31340;51.402;0.016;2022-08-03T01:50:29;30.80;;;11.70;;
44774;SDS011;31340;51.402;0.016;2022-08-03T01:53:00;27.70;;;11.80;;
44774;SDS011;31340;51.402;0.016;2022-08-03T01:55:28;31.63;;;12.27;;
44774;SDS011;31340;51.402;0.016;2022-08-03T01:57:59;25.42;;;11.40;;
44774;SDS011;31340;51.402;0.016;2022-08-03T02:00:35;24.92;;;10.98;;
44774;SDS011;31340;51.402;0.016;2022-08-03T02:03:04;28.05;;;12.25;;
44774;SDS011;31340;51.402;0.016;2022-08-03T02:05:33;27.10;;;11.15;;
44774;SDS011;31340;51.402;0.016;2022-08-03T02:08:02;29.25;;;11.80;;
44774;SDS011;31340;51.402;0.016;2022-08-03T02:10:34;28.60;;;11.32;;
44774;SDS011;31340;51.402;0.016;2022-08-03T02:13:04;27.45;;;10.75;;
44774;SDS011;31340;51.402;0.016;2022-08-03T02:15:34;15.68;;;9.90;;
44774;SDS011;31340;51.402;0.016;2022-08-03T02:18:04;27.15;;;10.73;;
44774;SDS011;31340;51.402;0.016;2022-08-03T02:23:04;22.88;;;8.55;;
44774;SDS011;31340;51.402;0.016;2022-08-03T02:25:34;22.73;;;9.02;;
44774;SDS011;31340;51.402;0.016;2022-08-03T02:28:09;22.83;;;8.80;;
44774;SDS011;31340;51.402;0.016;2022-08-03T02:30:39;17.33;;;7.93;;
44774;SDS011;31340;51.402;0.016;2022-08-03T02:33:11;20.67;;;7.55;;
44774;SDS011;31340;51.402;0.016;2022-08-03T02:35:47;22.63;;;7.93;;
44774;SDS011;31340;51.402;0.016;2022-08-03T02:38:18;26.83;;;6.82;;
44774;SDS011;31340;51.402;0.016;2022-08-03T02:40:49;17.45;;;5.97;;
44774;SDS011;31340;51.402;0.016;2022-08-03T02:43:19;22.67;;;7.03;;
44774;SDS011;31340;51.402;0.016;2022-08-03T02:45:49;24.52;;;7.18;;
44774;SDS011;31340;51.402;0.016;2022-08-03T02:48:19;24.25;;;6.20;;
44774;SDS011;31340;51.402;0.016;2022-08-03T02:50:53;27.20;;;6.32;;
44774;SDS011;31340;51.402;0.016;2022-08-03T02:53:25;22.15;;;5.38;;
44774;SDS011;31340;51.402;0.016;2022-08-03T02:55:55;18.58;;;5.05;;
44774;SDS011;31340;51.402;0.016;2022-08-03T02:58:23;24.25;;;6.13;;
44774;SDS011;31340;51.402;0.016;2022-08-03T03:00:53;17.80;;;5.00;;
44774;SDS011;31340;51.402;0.016;2022-08-03T03:03:21;13.93;;;4.05;;
44774;SDS011;31340;51.402;0.016;2022-08-03T03:05:52;19.67;;;4.63;;
44774;SDS011;31340;51.402;0.016;2022-08-03T03:08:24;21.65;;;5.40;;
44774;SDS011;31340;51.402;0.016;2022-08-03T03:10:56;23.25;;;4.35;;
44774;SDS011;31340;51.402;0.016;2022-08-03T03:13:27;17.85;;;5.35;;
44774;SDS011;31340;51.402;0.016;2022-08-03T03:15:58;20.30;;;5.25;;
44774;SDS011;31340;51.402;0.016;2022-08-03T03:18:28;22.85;;;5.38;;
44774;SDS011;31340;51.402;0.016;2022-08-03T03:20:58;18.00;;;5.30;;
44774;SDS011;31340;51.402;0.016;2022-08-03T03:23:28;26.45;;;6.43;;
44774;SDS011;31340;51.402;0.016;2022-08-03T03:26:00;21.55;;;5.57;;
44774;SDS011;31340;51.402;0.016;2022-08-03T03:28:28;18.58;;;5.38;;
44774;SDS011;31340;51.402;0.016;2022-08-03T03:30:58;16.88;;;5.30;;
44774;SDS011;31340;51.402;0.016;2022-08-03T03:33:26;20.25;;;5.50;;
44774;SDS011;31340;51.402;0.016;2022-08-03T03:35:54;17.85;;;5.40;;
44774;SDS011;31340;51.402;0.016;2022-08-03T03:38:24;20.83;;;6.30;;
44774;SDS011;31340;51.402;0.016;2022-08-03T03:40:51;21.38;;;6.45;;
44774;SDS011;31340;51.402;0.016;2022-08-03T03:43:19;20.85;;;5.95;;
44774;SDS011;31340;51.402;0.016;2022-08-03T03:45:49;18.10;;;6.50;;
44774;SDS011;31340;51.402;0.016;2022-08-03T03:48:19;22.77;;;6.50;;
44774;SDS011;31340;51.402;0.016;2022-08-03T03:50:48;17.95;;;6.43;;
44774;SDS011;31340;51.402;0.016;2022-08-03T03:53:16;14.95;;;6.10;;
44774;SDS011;31340;51.402;0.016;2022-08-03T03:55:44;20.45;;;6.50;;
44774;SDS011;31340;51.402;0.016;2022-08-03T03:58:29;19.15;;;6.22;;
44774;SDS011;31340;51.402;0.016;2022-08-03T04:00:58;16.48;;;5.10;;
44774;SDS011;31340;51.402;0.016;2022-08-03T04:03:26;21.45;;;5.70;;
44774;SDS011;31340;51.402;0.016;2022-08-03T04:05:54;23.20;;;6.40;;
44774;SDS011;31340;51.402;0.016;2022-08-03T04:08:41;17.05;;;6.72;;
44774;SDS011;31340;51.402;0.016;2022-08-03T04:11:29;14.80;;;6.20;;
44774;SDS011;31340;51.402;0.016;2022-08-03T04:14:07;25.95;;;7.25;;
44774;SDS011;31340;51.402;0.016;2022-08-03T04:16:38;21.10;;;7.22;;
44774;SDS011;31340;51.402;0.016;2022-08-03T04:19:14;21.55;;;8.50;;
44774;SDS011;31340;51.402;0.016;2022-08-03T04:21:51;20.07;;;7.50;;
44774;SDS011;31340;51.402;0.016;2022-08-03T04:24:24;24.23;;;8.07;;
44774;SDS011;31340;51.402;0.016;2022-08-03T04:26:58;17.88;;;7.82;;
44774;SDS011;31340;51.402;0.016;2022-08-03T04:29:28;18.27;;;7.47;;
44774;SDS011;31340;51.402;0.016;2022-08-03T04:31:59;17.33;;;8.15;;
44774;SDS011;31340;51.402;0.016;2022-08-03T04:34:29;23.40;;;9.23;;
44774;SDS011;31340;51.402;0.016;2022-08-03T04:36:58;27.25;;;8.88;;
44774;SDS011;31340;51.402;0.016;2022-08-03T04:39:28;19.95;;;8.43;;
44774;SDS011;31340;51.402;0.016;2022-08-03T04:41:59;21.40;;;8.37;;
44774;SDS011;31340;51.402;0.016;2022-08-03T04:44:43;17.48;;;8.40;;
44774;SDS011;31340;51.402;0.016;2022-08-03T04:47:11;26.27;;;9.02;;
44774;SDS011;31340;51.402;0.016;2022-08-03T04:49:39;24.00;;;8.15;;
44774;SDS011;31340;51.402;0.016;2022-08-03T04:52:07;23.17;;;9.13;;
44774;SDS011;31340;51.402;0.016;2022-08-03T04:54:40;22.05;;;10.13;;
44774;SDS011;31340;51.402;0.016;2022-08-03T04:57:14;23.38;;;10.10;;
44774;SDS011;31340;51.402;0.016;2022-08-03T04:59:52;23.77;;;9.48;;
44774;SDS011;31340;51.402;0.016;2022-08-03T05:02:29;21.77;;;9.85;;
44774;SDS011;31340;51.402;0.016;2022-08-03T05:04:57;22.85;;;9.63;;
44774;SDS011;31340;51.402;0.016;2022-08-03T05:07:25;21.70;;;10.60;;
44774;SDS011;31340;51.402;0.016;2022-08-03T05:10:03;21.05;;;10.20;;
44774;SDS011;31340;51.402;0.016;2022-08-03T05:12:41;19.42;;;9.43;;
44774;SDS011;31340;51.402;0.016;2022-08-03T05:15:10;19.13;;;8.77;;
44774;SDS011;31340;51.402;0.016;2022-08-03T05:17:38;27.38;;;9.93;;
44774;SDS011;31340;51.402;0.016;2022-08-03T05:20:07;22.33;;;8.35;;
44774;SDS011;31340;51.402;0.016;2022-08-03T05:22:35;21.23;;;8.93;;
44774;SDS011;31340;51.402;0.016;2022-08-03T05:25:02;19.63;;;8.30;;
44774;SDS011;31340;51.402;0.016;2022-08-03T05:27:31;21.48;;;8.15;;
44774;SDS011;31340;51.402;0.016;2022-08-03T05:29:59;19.90;;;7.72;;
44774;SDS011;31340;51.402;0.016;2022-08-03T05:32:46;24.65;;;7.63;;
44774;SDS011;31340;51.402;0.016;2022-08-03T05:35:14;18.17;;;7.10;;
44774;SDS011;31340;51.402;0.016;2022-08-03T05:38:02;17.23;;;7.47;;
44774;SDS011;31340;51.402;0.016;2022-08-03T05:40:32;17.80;;;7.30;;
44774;SDS011;31340;51.402;0.016;2022-08-03T05:43:00;20.25;;;7.80;;
44774;SDS011;31340;51.402;0.016;2022-08-03T05:45:28;22.40;;;8.30;;
44774;SDS011;31340;51.402;0.016;2022-08-03T05:47:55;19.88;;;8.15;;
44774;SDS011;31340;51.402;0.016;2022-08-03T05:50:23;19.65;;;8.30;;
44774;SDS011;31340;51.402;0.016;2022-08-03T05:52:53;18.85;;;8.00;;
44774;SDS011;31340;51.402;0.016;2022-08-03T05:55:23;20.85;;;8.38;;
44774;SDS011;31340;51.402;0.016;2022-08-03T05:57:51;22.17;;;8.88;;
44774;SDS011;31340;51.402;0.016;2022-08-03T06:02:51;20.63;;;8.65;;
44774;SDS011;31340;51.402;0.016;2022-08-03T06:05:19;19.90;;;9.50;;
44774;SDS011;31340;51.402;0.016;2022-08-03T06:07:47;17.13;;;8.25;;
44774;SDS011;31340;51.402;0.016;2022-08-03T06:10:15;23.90;;;9.07;;
44774;SDS011;31340;51.402;0.016;2022-08-03T06:13:02;21.40;;;8.75;;
44774;SDS011;31340;51.402;0.016;2022-08-03T06:15:30;16.38;;;7.72;;
44774;SDS011;31340;51.402;0.016;2022-08-03T06:17:59;19.85;;;7.80;;
44774;SDS011;31340;51.402;0.016;2022-08-03T06:20:28;16.83;;;6.93;;
44774;SDS011;31340;51.402;0.016;2022-08-03T06:22:56;17.45;;;6.90;;
44774;SDS011;31340;51.402;0.016;2022-08-03T06:27:55;15.40;;;6.10;;
44774;SDS011;31340;51.402;0.016;2022-08-03T06:30:22;13.82;;;6.57;;
44774;SDS011;31340;51.402;0.016;2022-08-03T06:32:50;14.52;;;6.10;;
44774;SDS011;31340;51.402;0.016;2022-08-03T06:35:18;13.48;;;5.10;;
44774;SDS011;31340;51.402;0.016;2022-08-03T06:37:47;14.88;;;5.35;;
44774;SDS011;31340;51.402;0.016;2022-08-03T06:40:17;13.13;;;4.95;;
44774;SDS011;31340;51.402;0.016;2022-08-03T06:42:59;18.42;;;5.00;;
44774;SDS011;31340;51.402;0.016;2022-08-03T06:45:29;9.95;;;4.03;;
44774;SDS011;31340;51.402;0.016;2022-08-03T06:48:02;10.00;;;4.30;;
44774;SDS011;31340;51.402;0.016;2022-08-03T06:50:34;8.82;;;4.20;;
44774;SDS011;31340;51.402;0.016;2022-08-03T06:53:03;9.85;;;4.25;;
44774;SDS011;31340;51.402;0.016;2022-08-03T06:55:31;14.52;;;4.93;;
44774;SDS011;31340;51.402;0.016;2022-08-03T06:58:08;8.13;;;3.85;;
44774;SDS011;31340;51.402;0.016;2022-08-03T07:00:35;9.43;;;3.70;;
44774;SDS011;31340;51.402;0.016;2022-08-03T07:03:03;7.93;;;3.53;;
44774;SDS011;31340;51.402;0.016;2022-08-03T07:05:31;13.57;;;4.25;;
44774;SDS011;31340;51.402;0.016;2022-08-03T07:08:01;9.50;;;4.17;;
44774;SDS011;31340;51.402;0.016;2022-08-03T07:10:29;8.77;;;3.45;;
44774;SDS011;31340;51.402;0.016;2022-08-03T07:12:56;5.63;;;3.45;;
44774;SDS011;31340;51.402;0.016;2022-08-03T07:15:24;10.38;;;3.58;;
44774;SDS011;31340;51.402;0.016;2022-08-03T07:18:12;8.00;;;3.35;;
44774;SDS011;31340;51.402;0.016;2022-08-03T07:20:40;8.00;;;4.00;;
44774;SDS011;31340;51.402;0.016;2022-08-03T07:23:08;7.55;;;3.85;;
44774;SDS011;31340;51.402;0.016;2022-08-03T07:25:42;6.57;;;2.85;;
44774;SDS011;31340;51.402;0.016;2022-08-03T07:28:09;5.70;;;2.88;;
44774;SDS011;31340;51.402;0.016;2022-08-03T07:30:37;7.95;;;3.05;;
44774;SDS011;31340;51.402;0.016;2022-08-03T07:33:04;5.85;;;3.00;;
44774;SDS011;31340;51.402;0.016;2022-08-03T07:35:32;5.88;;;3.10;;
44774;SDS011;31340;51.402;0.016;2022-08-03T07:38:00;6.00;;;3.25;;
44774;SDS011;31340;51.402;0.016;2022-08-03T07:40:27;6.40;;;2.60;;
44774;SDS011;31340;51.402;0.016;2022-08-03T07:42:58;4.75;;;3.15;;
44774;SDS011;31340;51.402;0.016;2022-08-03T07:45:26;3.75;;;3.30;;
44774;SDS011;31340;51.402;0.016;2022-08-03T07:47:53;3.60;;;2.97;;
44774;SDS011;31340;51.402;0.016;2022-08-03T07:50:21;4.97;;;3.00;;
44774;SDS011;31340;51.402;0.016;2022-08-03T07:52:49;4.50;;;2.40;;
44774;SDS011;31340;51.402;0.016;2022-08-03T07:55:20;5.70;;;2.63;;
44774;SDS011;31340;51.402;0.016;2022-08-03T08:00:50;4.18;;;2.42;;
44774;SDS011;31340;51.402;0.016;2022-08-03T08:03:19;6.53;;;2.40;;
44774;SDS011;31340;51.402;0.016;2022-08-03T08:05:48;6.05;;;2.13;;
44774;SDS011;31340;51.402;0.016;2022-08-03T08:08:15;2.67;;;1.70;;
44774;SDS011;31340;51.402;0.016;2022-08-03T08:10:43;4.60;;;2.45;;
44774;SDS011;31340;51.402;0.016;2022-08-03T08:13:24;4.72;;;1.73;;
44774;SDS011;31340;51.402;0.016;2022-08-03T08:15:52;3.80;;;1.77;;
44774;SDS011;31340;51.402;0.016;2022-08-03T08:18:19;3.60;;;1.70;;
44774;SDS011;31340;51.402;0.016;2022-08-03T08:20:47;4.18;;;1.98;;
44774;SDS011;31340;51.402;0.016;2022-08-03T08:23:15;3.70;;;1.60;;
44774;SDS011;31340;51.402;0.016;2022-08-03T08:26:09;2.70;;;1.58;;
44774;SDS011;31340;51.402;0.016;2022-08-03T08:28:36;3.70;;;1.98;;
44774;SDS011;31340;51.402;0.016;2022-08-03T08:31:04;4.70;;;1.63;;
44774;SDS011;31340;51.402;0.016;2022-08-03T08:33:32;4.38;;;1.35;;
44774;SDS011;31340;51.402;0.016;2022-08-03T08:36:21;1.92;;;1.40;;
44774;SDS011;31340;51.402;0.016;2022-08-03T08:38:49;3.22;;;1.20;;
44774;SDS011;31340;51.402;0.016;2022-08-03T08:41:17;4.00;;;1.60;;
44774;SDS011;31340;51.402;0.016;2022-08-03T08:43:45;2.17;;;1.10;;
44774;SDS011;31340;51.402;0.016;2022-08-03T08:46:13;3.42;;;1.98;;
44774;SDS011;31340;51.402;0.016;2022-08-03T08:48:50;2.42;;;1.60;;
44774;SDS011;31340;51.402;0.016;2022-08-03T08:51:20;2.78;;;1.70;;
44774;SDS011;31340;51.402;0.016;2022-08-03T08:53:50;4.80;;;1.92;;
44774;SDS011;31340;51.402;0.016;2022-08-03T08:56:19;3.60;;;1.55;;
44774;SDS011;31340;51.402;0.016;2022-08-03T08:58:51;3.85;;;1.70;;
44774;SDS011;31340;51.402;0.016;2022-08-03T09:01:20;1.50;;;1.38;;
44774;SDS011;31340;51.402;0.016;2022-08-03T09:03:48;5.65;;;1.30;;
44774;SDS011;31340;51.402;0.016;2022-08-03T09:06:17;5.75;;;1.60;;
44774;SDS011;31340;51.402;0.016;2022-08-03T09:08:45;7.13;;;1.73;;
44774;SDS011;31340;51.402;0.016;2022-08-03T09:11:12;2.30;;;1.60;;
44774;SDS011;31340;51.402;0.016;2022-08-03T09:13:40;6.03;;;1.50;;
44774;SDS011;31340;51.402;0.016;2022-08-03T09:16:12;3.05;;;1.60;;
44774;SDS011;31340;51.402;0.016;2022-08-03T09:18:49;3.15;;;1.90;;
44774;SDS011;31340;51.402;0.016;2022-08-03T09:21:22;2.30;;;1.75;;
44774;SDS011;31340;51.402;0.016;2022-08-03T09:24:01;3.22;;;1.73;;
44774;SDS011;31340;51.402;0.016;2022-08-03T09:26:34;6.50;;;1.90;;
44774;SDS011;31340;51.402;0.016;2022-08-03T09:29:04;2.55;;;1.50;;
44774;SDS011;31340;51.402;0.016;2022-08-03T09:31:45;3.30;;;1.38;;
44774;SDS011;31340;51.402;0.016;2022-08-03T09:34:14;2.17;;;1.75;;
44774;SDS011;31340;51.402;0.016;2022-08-03T09:36:43;2.60;;;1.70;;
44774;SDS011;31340;51.402;0.016;2022-08-03T09:39:13;4.97;;;1.80;;
44774;SDS011;31340;51.402;0.016;2022-08-03T09:41:43;3.20;;;2.00;;
44774;SDS011;31340;51.402;0.016;2022-08-03T09:44:12;4.68;;;1.52;;
44774;SDS011;31340;51.402;0.016;2022-08-03T09:46:54;4.20;;;1.50;;
44774;SDS011;31340;51.402;0.016;2022-08-03T09:49:23;4.28;;;1.60;;
44774;SDS011;31340;51.402;0.016;2022-08-03T09:51:51;4.47;;;2.08;;
44774;SDS011;31340;51.402;0.016;2022-08-03T09:54:40;2.05;;;1.60;;
44774;SDS011;31340;51.402;0.016;2022-08-03T09:57:19;3.08;;;1.80;;
44774;SDS011;31340;51.402;0.016;2022-08-03T09:59:51;3.78;;;1.77;;
44774;SDS011;31340;51.402;0.016;2022-08-03T10:02:38;5.18;;;2.20;;
44774;SDS011;31340;51.402;0.016;2022-08-03T10:05:10;5.53;;;2.10;;
44774;SDS011;31340;51.402;0.016;2022-08-03T10:07:48;3.38;;;1.95;;
44774;SDS011;31340;51.402;0.016;2022-08-03T10:12:56;4.30;;;1.70;;
44774;SDS011;31340;51.402;0.016;2022-08-03T10:15:26;7.00;;;2.00;;
44774;SDS011;31340;51.402;0.016;2022-08-03T10:18:14;9.45;;;2.08;;
44774;SDS011;31340;51.402;0.016;2022-08-03T10:20:48;4.35;;;1.70;;
44774;SDS011;31340;51.402;0.016;2022-08-03T10:23:19;2.78;;;1.50;;
44774;SDS011;31340;51.402;0.016;2022-08-03T10:25:50;4.82;;;1.88;;
44774;SDS011;31340;51.402;0.016;2022-08-03T10:28:21;3.83;;;1.83;;
44774;SDS011;31340;51.402;0.016;2022-08-03T10:30:50;5.47;;;1.73;;
44774;SDS011;31340;51.402;0.016;2022-08-03T10:33:20;4.70;;;1.60;;
44774;SDS011;31340;51.402;0.016;2022-08-03T10:36:10;3.05;;;1.90;;
44774;SDS011;31340;51.402;0.016;2022-08-03T10:38:42;5.25;;;1.70;;
44774;SDS011;31340;51.402;0.016;2022-08-03T10:41:14;4.25;;;1.88;;
44774;SDS011;31340;51.402;0.016;2022-08-03T10:43:52;4.90;;;1.70;;
44774;SDS011;31340;51.402;0.016;2022-08-03T10:46:25;5.93;;;2.10;;
44774;SDS011;31340;51.402;0.016;2022-08-03T10:48:54;7.25;;;2.40;;
44774;SDS011;31340;51.402;0.016;2022-08-03T10:51:23;6.13;;;2.78;;
44774;SDS011;31340;51.402;0.016;2022-08-03T10:53:57;6.95;;;2.72;;
44774;SDS011;31340;51.402;0.016;2022-08-03T10:59:18;6.93;;;2.28;;
44774;SDS011;31340;51.402;0.016;2022-08-03T11:01:55;6.55;;;1.90;;
44774;SDS011;31340;51.402;0.016;2022-08-03T11:04:27;8.50;;;2.30;;
44774;SDS011;31340;51.402;0.016;2022-08-03T11:09:59;5.30;;;1.92;;
44774;SDS011;31340;51.402;0.016;2022-08-03T11:12:27;4.70;;;1.80;;
44774;SDS011;31340;51.402;0.016;2022-08-03T11:14:59;6.38;;;1.70;;
44774;SDS011;31340;51.402;0.016;2022-08-03T11:17:34;4.95;;;2.47;;
44774;SDS011;31340;51.402;0.016;2022-08-03T11:23:12;10.82;;;2.75;;
44774;SDS011;31340;51.402;0.016;2022-08-03T11:28:37;5.55;;;2.20;;
44774;SDS011;31340;51.402;0.016;2022-08-03T11:34:09;8.55;;;2.58;;
44774;SDS011;31340;51.402;0.016;2022-08-03T11:39:47;4.68;;;2.05;;
44774;SDS011;31340;51.402;0.016;2022-08-03T11:44:50;8.13;;;1.95;;
44774;SDS011;31340;51.402;0.016;2022-08-03T11:47:22;7.18;;;2.10;;
44774;SDS011;31340;51.402;0.016;2022-08-03T11:49:55;6.93;;;2.28;;
44774;SDS011;31340;51.402;0.016;2022-08-03T11:52:26;6.20;;;2.03;;
44774;SDS011;31340;51.402;0.016;2022-08-03T11:55:01;8.07;;;1.90;;
44774;SDS011;31340;51.402;0.016;2022-08-03T11:57:35;4.78;;;2.17;;
44774;SDS011;31340;51.402;0.016;2022-08-03T12:00:30;7.97;;;1.70;;
44774;SDS011;31340;51.402;0.016;2022-08-03T12:05:41;6.28;;;1.90;;
44774;SDS011;31340;51.402;0.016;2022-08-03T12:10:55;7.75;;;2.25;;
44774;SDS011;31340;51.402;0.016;2022-08-03T12:13:23;10.18;;;2.25;;
44774;SDS011;31340;51.402;0.016;2022-08-03T12:16:16;14.10;;;2.00;;
44774;SDS011;31340;51.402;0.016;2022-08-03T12:18:53;7.57;;;2.15;;
44774;SDS011;31340;51.402;0.016;2022-08-03T12:21:25;8.73;;;2.40;;
44774;SDS011;31340;51.402;0.016;2022-08-03T12:24:00;5.95;;;1.63;;
44774;SDS011;31340;51.402;0.016;2022-08-03T12:26:30;7.40;;;1.65;;
44774;SDS011;31340;51.402;0.016;2022-08-03T12:29:25;5.65;;;1.48;;
44774;SDS011;31340;51.402;0.016;2022-08-03T12:31:53;10.65;;;1.70;;
44774;SDS011;31340;51.402;0.016;2022-08-03T12:34:22;5.20;;;1.70;;
44774;SDS011;31340;51.402;0.016;2022-08-03T12:36:50;8.05;;;1.63;;
44774;SDS011;31340;51.402;0.016;2022-08-03T12:39:23;7.10;;;1.40;;
44774;SDS011;31340;51.402;0.016;2022-08-03T12:41:54;5.60;;;1.45;;
44774;SDS011;31340;51.402;0.016;2022-08-03T12:44:30;12.93;;;2.42;;
44774;SDS011;31340;51.402;0.016;2022-08-03T12:46:59;10.10;;;1.83;;
44774;SDS011;31340;51.402;0.016;2022-08-03T12:49:45;8.00;;;1.63;;
44774;SDS011;31340;51.402;0.016;2022-08-03T12:52:16;6.70;;;1.95;;
44774;SDS011;31340;51.402;0.016;2022-08-03T12:54:54;6.83;;;2.30;;
44774;SDS011;31340;51.402;0.016;2022-08-03T13:00:10;5.72;;;1.45;;
44774;SDS011;31340;51.402;0.016;2022-08-03T13:03:05;7.78;;;1.50;;
44774;SDS011;31340;51.402;0.016;2022-08-03T13:05:53;5.53;;;1.75;;
44774;SDS011;31340;51.402;0.016;2022-08-03T13:08:22;9.02;;;2.10;;
44774;SDS011;31340;51.402;0.016;2022-08-03T13:10:51;5.83;;;1.67;;
44774;SDS011;31340;51.402;0.016;2022-08-03T13:13:36;10.85;;;2.15;;
44774;SDS011;31340;51.402;0.016;2022-08-03T13:16:04;9.70;;;2.03;;
44774;SDS011;31340;51.402;0.016;2022-08-03T13:18:32;10.50;;;1.83;;
44774;SDS011;31340;51.402;0.016;2022-08-03T13:21:00;5.65;;;1.70;;
44774;SDS011;31340;51.402;0.016;2022-08-03T13:23:30;9.27;;;1.77;;
44774;SDS011;31340;51.402;0.016;2022-08-03T13:25:58;7.63;;;1.85;;
44774;SDS011;31340;51.402;0.016;2022-08-03T13:28:25;7.22;;;1.90;;
44774;SDS011;31340;51.402;0.016;2022-08-03T13:30:53;4.55;;;1.67;;
44774;SDS011;31340;51.402;0.016;2022-08-03T13:33:21;7.60;;;1.63;;
44774;SDS011;31340;51.402;0.016;2022-08-03T13:35:49;9.23;;;1.70;;
44774;SDS011;31340;51.402;0.016;2022-08-03T13:38:16;6.35;;;2.05;;
44774;SDS011;31340;51.402;0.016;2022-08-03T13:40:47;12.00;;;2.25;;
44774;SDS011;31340;51.402;0.016;2022-08-03T13:43:15;8.48;;;1.95;;
44774;SDS011;31340;51.402;0.016;2022-08-03T13:45:43;7.80;;;1.90;;
44774;SDS011;31340;51.402;0.016;2022-08-03T13:48:19;4.20;;;1.55;;
44774;SDS011;31340;51.402;0.016;2022-08-03T13:51:04;6.65;;;1.63;;
44774;SDS011;31340;51.402;0.016;2022-08-03T13:53:49;10.98;;;2.40;;
44774;SDS011;31340;51.402;0.016;2022-08-03T13:56:18;6.93;;;1.95;;
44774;SDS011;31340;51.402;0.016;2022-08-03T13:58:46;7.57;;;1.90;;
44774;SDS011;31340;51.402;0.016;2022-08-03T14:01:14;8.18;;;1.65;;
44774;SDS011;31340;51.402;0.016;2022-08-03T14:03:41;10.07;;;2.22;;
44774;SDS011;31340;51.402;0.016;2022-08-03T14:06:09;9.20;;;1.67;;
44774;SDS011;31340;51.402;0.016;2022-08-03T14:08:36;6.30;;;1.90;;
44774;SDS011;31340;51.402;0.016;2022-08-03T14:11:04;10.70;;;1.92;;
44774;SDS011;31340;51.402;0.016;2022-08-03T14:13:32;5.40;;;1.50;;
44774;SDS011;31340;51.402;0.016;2022-08-03T14:16:00;7.38;;;1.70;;
44774;SDS011;31340;51.402;0.016;2022-08-03T14:18:29;8.30;;;1.85;;
44774;SDS011;31340;51.402;0.016;2022-08-03T14:21:00;12.80;;;2.25;;
44774;SDS011;31340;51.402;0.016;2022-08-03T14:23:34;6.38;;;2.03;;
44774;SDS011;31340;51.402;0.016;2022-08-03T14:26:07;9.55;;;1.88;;
44774;SDS011;31340;51.402;0.016;2022-08-03T14:28:35;7.65;;;1.80;;
44774;SDS011;31340;51.402;0.016;2022-08-03T14:31:02;8.55;;;2.50;;
44774;SDS011;31340;51.402;0.016;2022-08-03T14:33:50;7.68;;;2.00;;
44774;SDS011;31340;51.402;0.016;2022-08-03T14:36:18;9.68;;;2.05;;
44774;SDS011;31340;51.402;0.016;2022-08-03T14:38:46;10.95;;;2.10;;
44774;SDS011;31340;51.402;0.016;2022-08-03T14:41:14;6.32;;;1.85;;
44774;SDS011;31340;51.402;0.016;2022-08-03T14:43:46;9.13;;;1.70;;
44774;SDS011;31340;51.402;0.016;2022-08-03T14:46:28;8.25;;;2.42;;
44774;SDS011;31340;51.402;0.016;2022-08-03T14:48:56;8.27;;;2.38;;
44774;SDS011;31340;51.402;0.016;2022-08-03T14:51:45;9.05;;;2.20;;
44774;SDS011;31340;51.402;0.016;2022-08-03T14:54:20;9.05;;;1.92;;
44774;SDS011;31340;51.402;0.016;2022-08-03T14:56:48;9.63;;;2.22;;
44774;SDS011;31340;51.402;0.016;2022-08-03T14:59:16;6.07;;;2.22;;
44774;SDS011;31340;51.402;0.016;2022-08-03T15:01:44;12.73;;;2.33;;
44774;SDS011;31340;51.402;0.016;2022-08-03T15:04:31;8.15;;;2.17;;
44774;SDS011;31340;51.402;0.016;2022-08-03T15:06:59;7.82;;;2.17;;
44774;SDS011;31340;51.402;0.016;2022-08-03T15:09:26;7.82;;;2.05;;
44774;SDS011;31340;51.402;0.016;2022-08-03T15:11:54;6.18;;;1.77;;
44774;SDS011;31340;51.402;0.016;2022-08-03T15:14:22;12.95;;;2.42;;
44774;SDS011;31340;51.402;0.016;2022-08-03T15:16:59;9.20;;;2.08;;
44774;SDS011;31340;51.402;0.016;2022-08-03T15:19:26;7.57;;;1.77;;
44774;SDS011;31340;51.402;0.016;2022-08-03T15:22:14;7.28;;;1.83;;
44774;SDS011;31340;51.402;0.016;2022-08-03T15:24:46;6.45;;;1.75;;
44774;SDS011;31340;51.402;0.016;2022-08-03T15:27:14;6.93;;;1.88;;
44774;SDS011;31340;51.402;0.016;2022-08-03T15:29:41;5.53;;;1.60;;
44774;SDS011;31340;51.402;0.016;2022-08-03T15:32:29;7.07;;;1.60;;
44774;SDS011;31340;51.402;0.016;2022-08-03T15:34:57;7.53;;;1.98;;
44774;SDS011;31340;51.402;0.016;2022-08-03T15:37:25;8.05;;;1.60;;
44774;SDS011;31340;51.402;0.016;2022-08-03T15:39:54;8.15;;;1.90;;
44774;SDS011;31340;51.402;0.016;2022-08-03T15:42:26;7.18;;;1.70;;
44774;SDS011;31340;51.402;0.016;2022-08-03T15:44:55;4.15;;;1.77;;
44774;SDS011;31340;51.402;0.016;2022-08-03T15:47:23;6.95;;;1.90;;
44774;SDS011;31340;51.402;0.016;2022-08-03T15:49:51;7.38;;;1.95;;
44774;SDS011;31340;51.402;0.016;2022-08-03T15:52:19;2.67;;;1.48;;
44774;SDS011;31340;51.402;0.016;2022-08-03T15:54:46;6.55;;;1.92;;
44774;SDS011;31340;51.402;0.016;2022-08-03T15:57:14;8.38;;;1.55;;
44774;SDS011;31340;51.402;0.016;2022-08-03T15:59:42;7.93;;;1.60;;